createdAt,value
2019-04-10T00:01:58.059Z,18.53
2019-04-10T00:04:28.144Z,19.97
2019-04-10T00:07:10.522Z,16.97
2019-04-10T00:09:29.181Z,18.80
2019-04-10T00:11:58.996Z,16.83
2019-04-10T00:14:28.545Z,16.83
2019-04-10T00:16:58.029Z,17.80
2019-04-10T00:19:27.465Z,15.87
2019-04-10T00:21:57.786Z,16.20
2019-04-10T00:24:28.167Z,16.80
2019-04-10T00:26:58.505Z,17.67
2019-04-10T00:29:28.022Z,15.77
2019-04-10T00:32:01.067Z,17.00
2019-04-10T00:34:29.601Z,14.03
2019-04-10T00:36:59.632Z,16.47
2019-04-10T00:39:29.066Z,13.87
2019-04-10T00:41:58.797Z,17.83
2019-04-10T00:44:28.341Z,14.50
2019-04-10T00:46:58.906Z,14.70
2019-04-10T00:49:29.365Z,15.33
2019-04-10T00:51:59.584Z,15.13
2019-04-10T00:54:29.063Z,15.43
2019-04-10T00:56:59.088Z,14.30
2019-04-10T00:59:30.358Z,15.67
2019-04-10T01:02:00.373Z,15.20
2019-04-10T01:04:31.127Z,19.90
2019-04-10T01:07:00.838Z,14.40
2019-04-10T01:09:31.145Z,17.83
2019-04-10T01:12:00.711Z,15.00
2019-04-10T01:14:30.129Z,15.47
2019-04-10T01:16:59.984Z,15.23
2019-04-10T01:19:30.104Z,13.53
2019-04-10T01:21:59.563Z,14.77
2019-04-10T01:24:29.931Z,15.70
2019-04-10T01:26:59.525Z,15.77
2019-04-10T01:29:29.268Z,15.70
2019-04-10T01:31:59.530Z,15.87
2019-04-10T01:34:29.559Z,16.47
2019-04-10T01:36:59.140Z,13.80
2019-04-10T01:39:31.178Z,17.77
2019-04-10T01:42:04.199Z,16.13
2019-04-10T01:44:33.634Z,19.47
2019-04-10T01:47:04.725Z,20.93
2019-04-10T01:49:37.889Z,19.07
2019-04-10T01:52:07.294Z,18.63
2019-04-10T01:54:37.710Z,23.47
2019-04-10T01:57:08.126Z,18.93
2019-04-10T01:59:40.215Z,18.10
2019-04-10T02:02:17.401Z,18.40
2019-04-10T02:04:47.935Z,19.40
2019-04-10T02:07:18.052Z,20.20
2019-04-10T02:09:47.749Z,18.70
2019-04-10T02:12:17.262Z,17.40
2019-04-10T02:14:46.866Z,18.43
2019-04-10T02:17:16.807Z,19.63
2019-04-10T02:19:47.008Z,17.43
2019-04-10T02:22:16.468Z,15.83
2019-04-10T02:24:45.896Z,18.47
2019-04-10T02:27:16.242Z,21.47
2019-04-10T02:29:46.077Z,17.63
2019-04-10T02:32:16.632Z,17.60
2019-04-10T02:34:48.303Z,17.30
2019-04-10T02:37:17.164Z,18.73
2019-04-10T02:39:51.387Z,17.07
2019-04-10T02:42:18.611Z,16.50
2019-04-10T02:44:48.495Z,16.63
2019-04-10T02:47:21.247Z,17.33
2019-04-10T02:49:52.197Z,18.83
2019-04-10T02:52:25.337Z,17.27
2019-04-10T02:54:55.284Z,17.33
2019-04-10T02:57:25.494Z,18.27
2019-04-10T02:59:55.807Z,25.17
2019-04-10T03:02:26.764Z,20.47
2019-04-10T03:04:57.317Z,18.00
2019-04-10T03:07:29.126Z,17.77
2019-04-10T03:10:08.821Z,20.70
2019-04-10T03:12:32.304Z,18.57
2019-04-10T03:15:03.287Z,18.00
2019-04-10T03:17:33.254Z,18.80
2019-04-10T03:20:03.277Z,22.40
2019-04-10T03:22:34.665Z,19.07
2019-04-10T03:25:05.676Z,20.50
2019-04-10T03:27:36.640Z,19.33
2019-04-10T03:30:07.590Z,22.10
2019-04-10T03:32:47.577Z,19.17
2019-04-10T03:35:32.554Z,21.50
2019-04-10T03:38:02.023Z,18.03
2019-04-10T03:40:31.517Z,19.80
2019-04-10T03:43:01.501Z,19.60
2019-04-10T03:45:32.770Z,23.73
2019-04-10T03:48:04.767Z,22.93
2019-04-10T03:50:34.277Z,20.40
2019-04-10T03:53:03.790Z,21.57
2019-04-10T03:55:34.752Z,23.87
2019-04-10T03:58:04.355Z,26.57
2019-04-10T04:00:36.323Z,24.40
2019-04-10T04:03:06.511Z,24.33
2019-04-10T04:05:36.895Z,22.27
2019-04-10T04:08:07.480Z,20.37
2019-04-10T04:10:40.748Z,21.40
2019-04-10T04:13:11.073Z,25.07
2019-04-10T04:15:42.119Z,22.47
2019-04-10T04:18:12.923Z,23.97
2019-04-10T04:20:43.331Z,24.43
2019-04-10T04:23:13.678Z,22.23
2019-04-10T04:25:43.406Z,20.30
2019-04-10T04:28:12.850Z,21.93
2019-04-10T04:30:42.282Z,21.07
2019-04-10T04:33:12.902Z,22.80
2019-04-10T04:35:42.839Z,21.57
2019-04-10T04:38:13.347Z,22.63
2019-04-10T04:40:42.822Z,18.73
2019-04-10T04:43:13.214Z,26.07
2019-04-10T04:45:42.860Z,24.13
2019-04-10T04:48:12.561Z,23.07
2019-04-10T04:50:41.961Z,22.33
2019-04-10T04:53:11.397Z,20.63
2019-04-10T04:55:40.879Z,21.80
2019-04-10T04:58:13.747Z,22.17
2019-04-10T05:00:44.700Z,29.43
2019-04-10T05:03:14.161Z,24.55
2019-04-10T05:05:43.635Z,21.87
2019-04-10T05:08:13.225Z,24.87
2019-04-10T05:10:45.297Z,25.03
2019-04-10T05:13:15.656Z,25.00
2019-04-10T05:15:45.333Z,24.37
2019-04-10T05:18:14.761Z,22.27
2019-04-10T05:20:48.534Z,26.43
2019-04-10T05:23:16.085Z,26.20
2019-04-10T05:25:45.812Z,22.53
2019-04-10T05:28:15.453Z,22.60
2019-04-10T05:30:45.277Z,23.33
2019-04-10T05:33:14.724Z,25.67
2019-04-10T05:35:44.233Z,24.20
2019-04-10T05:38:13.675Z,21.90
2019-04-10T05:40:44.290Z,25.33
2019-04-10T05:43:13.715Z,29.97
2019-04-10T05:45:43.294Z,20.33
2019-04-10T05:48:12.711Z,21.73
2019-04-10T05:50:53.131Z,21.17
2019-04-10T05:53:16.264Z,21.73
2019-04-10T05:55:45.674Z,21.90
2019-04-10T05:58:15.469Z,22.83
2019-04-10T06:00:45.091Z,23.27
2019-04-10T06:03:14.583Z,21.27
2019-04-10T06:05:44.468Z,20.73
2019-04-10T06:08:14.012Z,24.37
2019-04-10T06:10:43.657Z,27.10
2019-04-10T06:13:13.117Z,24.03
2019-04-10T06:15:43.404Z,20.83
2019-04-10T06:18:13.888Z,20.97
2019-04-10T06:20:43.615Z,24.13
2019-04-10T06:23:13.108Z,23.77
2019-04-10T06:25:44.191Z,23.07
2019-04-10T06:28:15.487Z,23.00
2019-04-10T06:30:46.265Z,19.00
2019-04-10T06:33:17.953Z,20.10
2019-04-10T06:35:49.663Z,16.90
2019-04-10T06:38:19.682Z,22.53
2019-04-10T06:40:50.338Z,19.00
2019-04-10T06:43:21.015Z,23.97
2019-04-10T06:45:56.098Z,22.90
2019-04-10T06:48:25.906Z,17.20
2019-04-10T06:50:56.655Z,20.37
2019-04-10T06:53:26.213Z,16.30
2019-04-10T06:55:56.523Z,18.23
2019-04-10T06:58:26.123Z,18.17
2019-04-10T07:00:56.256Z,19.87
2019-04-10T07:03:43.644Z,12.20
2019-04-10T07:06:06.031Z,16.43
2019-04-10T07:08:28.091Z,11.43
2019-04-10T07:11:05.070Z,14.23
2019-04-10T07:13:30.222Z,18.17
2019-04-10T07:15:59.961Z,14.33
2019-04-10T07:18:29.531Z,18.23
2019-04-10T07:21:01.513Z,16.00
2019-04-10T07:23:32.382Z,15.80
2019-04-10T07:26:02.225Z,21.37
2019-04-10T07:28:31.712Z,23.60
2019-04-10T07:31:04.656Z,19.20
2019-04-10T07:33:32.963Z,12.20
2019-04-10T07:36:06.732Z,14.47
2019-04-10T07:38:33.684Z,14.67
2019-04-10T07:41:07.074Z,15.07
2019-04-10T07:43:34.310Z,14.13
2019-04-10T07:46:03.823Z,15.27
2019-04-10T07:48:33.591Z,15.10
2019-04-10T07:51:05.130Z,13.00
2019-04-10T07:53:35.936Z,15.70
2019-04-10T07:56:10.495Z,17.03
2019-04-10T07:58:37.694Z,17.23
2019-04-10T08:01:08.323Z,13.73
2019-04-10T08:03:37.756Z,16.40
2019-04-10T08:06:07.222Z,14.83
2019-04-10T08:08:36.786Z,15.83
2019-04-10T08:11:07.156Z,13.87
2019-04-10T08:13:36.566Z,16.53
2019-04-10T08:16:06.343Z,15.07
2019-04-10T08:18:37.282Z,13.13
2019-04-10T08:21:07.155Z,15.27
2019-04-10T08:23:39.505Z,14.70
2019-04-10T08:26:10.284Z,12.90
2019-04-10T08:28:41.370Z,14.23
2019-04-10T08:31:10.811Z,13.07
2019-04-10T08:33:40.378Z,12.37
2019-04-10T08:36:10.907Z,12.90
2019-04-10T08:38:42.118Z,16.93
2019-04-10T08:41:14.204Z,14.57
2019-04-10T08:43:43.658Z,15.47
2019-04-10T08:46:13.370Z,15.00
2019-04-10T08:48:44.073Z,13.10
2019-04-10T08:51:17.050Z,16.47
2019-04-10T08:53:46.748Z,14.23
2019-04-10T08:56:16.287Z,12.07
2019-04-10T08:58:45.718Z,13.30
2019-04-10T09:01:15.742Z,14.57
2019-04-10T09:03:45.194Z,12.83
2019-04-10T09:06:15.311Z,13.73
2019-04-10T09:08:46.316Z,13.40
2019-04-10T09:11:23.925Z,15.07
2019-04-10T09:13:47.010Z,11.90
2019-04-10T09:16:16.451Z,14.27
2019-04-10T09:18:45.906Z,11.77
2019-04-10T09:21:15.446Z,12.90
2019-04-10T09:23:51.738Z,12.63
2019-04-10T09:26:16.662Z,16.80
2019-04-10T09:28:46.615Z,14.53
2019-04-10T09:31:17.689Z,13.90
2019-04-10T09:33:47.458Z,18.33
2019-04-10T09:36:18.213Z,14.93
2019-04-10T09:38:48.615Z,13.90
2019-04-10T09:41:19.484Z,14.97
2019-04-10T09:43:49.687Z,14.03
2019-04-10T09:46:20.165Z,12.13
2019-04-10T09:48:49.905Z,12.23
2019-04-10T09:51:19.690Z,18.93
2019-04-10T09:53:49.105Z,14.67
2019-04-10T09:56:19.289Z,19.30
2019-04-10T09:58:50.073Z,13.87
2019-04-10T10:01:20.116Z,14.27
2019-04-10T10:03:50.712Z,13.67
2019-04-10T10:06:32.838Z,12.77
2019-04-10T10:08:58.454Z,13.30
2019-04-10T10:11:28.658Z,12.53
2019-04-10T10:13:58.477Z,13.20
2019-04-10T10:16:30.186Z,14.77
2019-04-10T10:19:00.227Z,18.07
2019-04-10T10:21:29.679Z,18.03
2019-04-10T10:24:00.337Z,15.33
2019-04-10T10:26:30.174Z,14.87
2019-04-10T10:29:02.754Z,14.87
2019-04-10T10:31:32.498Z,15.50
2019-04-10T10:34:04.099Z,16.03
2019-04-10T10:36:39.583Z,15.53
2019-04-10T10:39:11.941Z,12.67
2019-04-10T10:41:40.538Z,13.27
2019-04-10T10:44:10.986Z,15.33
2019-04-10T10:46:43.932Z,20.33
2019-04-10T10:49:14.592Z,18.73
2019-04-10T10:51:44.704Z,15.07
2019-04-10T10:54:18.928Z,13.07
2019-04-10T10:56:49.345Z,18.00
2019-04-10T10:59:21.824Z,16.90
2019-04-10T11:01:54.648Z,21.53
2019-04-10T11:04:24.172Z,15.57
2019-04-10T11:06:59.652Z,16.13
2019-04-10T11:09:26.296Z,16.07
2019-04-10T11:11:56.007Z,15.70
2019-04-10T11:14:27.712Z,18.03
2019-04-10T11:16:58.991Z,19.33
2019-04-10T11:19:31.163Z,13.80
2019-04-10T11:22:02.660Z,16.17
2019-04-10T11:24:33.196Z,18.10
2019-04-10T11:27:04.096Z,14.77
2019-04-10T11:29:35.146Z,11.37
2019-04-10T11:32:06.638Z,17.73
2019-04-10T11:34:35.818Z,16.20
2019-04-10T11:42:09.938Z,12.47
2019-04-10T11:44:44.427Z,12.40
2019-04-10T11:47:12.502Z,15.40
2019-04-10T11:49:46.685Z,12.80
2019-04-10T11:52:19.080Z,14.77
2019-04-10T11:54:49.243Z,12.10
2019-04-10T11:57:20.452Z,18.20
2019-04-10T11:59:49.780Z,16.23
2019-04-10T12:02:22.930Z,14.03
2019-04-10T12:12:28.011Z,11.60
2019-04-10T12:14:57.537Z,17.73
2019-04-10T12:17:27.712Z,11.73
2019-04-10T12:19:58.258Z,11.50
2019-04-10T12:22:27.635Z,15.03
2019-04-10T12:24:58.453Z,12.47
2019-04-10T12:27:27.979Z,12.93
2019-04-10T12:29:57.462Z,12.30
2019-04-10T12:32:26.953Z,13.60
2019-04-10T12:34:56.467Z,15.17
2019-04-10T12:37:25.908Z,12.63
2019-04-10T12:39:57.139Z,16.13
2019-04-10T12:42:26.608Z,14.83
2019-04-10T12:44:56.076Z,13.87
2019-04-10T12:47:25.946Z,15.40
2019-04-10T12:49:56.897Z,11.70
2019-04-10T12:52:26.941Z,13.13
2019-04-10T12:54:59.595Z,22.90
2019-04-10T12:57:30.809Z,12.90
2019-04-10T13:00:04.059Z,11.90
2019-04-10T13:02:34.412Z,12.17
2019-04-10T13:05:07.578Z,11.73
2019-04-10T13:07:37.948Z,13.37
2019-04-10T13:10:08.755Z,12.93
2019-04-10T13:12:39.726Z,13.13
2019-04-10T13:15:10.942Z,12.87
2019-04-10T13:17:40.739Z,13.93
2019-04-10T13:20:11.918Z,17.30
2019-04-10T13:22:42.289Z,17.93
2019-04-10T13:25:12.600Z,11.27
2019-04-10T13:27:43.123Z,13.80
2019-04-10T13:30:14.663Z,15.03
2019-04-10T13:32:44.438Z,14.03
2019-04-10T13:35:14.271Z,18.73
2019-04-10T13:37:46.790Z,17.53
2019-04-10T13:40:16.465Z,18.33
2019-04-10T13:42:45.987Z,13.43
2019-04-10T13:45:17.494Z,15.70
2019-04-10T13:47:48.258Z,13.20
2019-04-10T13:50:18.989Z,13.90
2019-04-10T13:52:52.250Z,21.87
2019-04-10T13:55:21.779Z,12.00
2019-04-10T13:57:53.104Z,13.80
2019-04-10T14:00:38.776Z,17.47
2019-04-10T14:03:16.408Z,16.63
2019-04-10T14:05:49.456Z,12.73
2019-04-10T14:08:18.937Z,15.40
2019-04-10T14:10:50.865Z,14.53
2019-04-10T14:13:22.012Z,16.60
2019-04-10T14:15:52.463Z,12.27
2019-04-10T14:18:22.087Z,14.47
2019-04-10T14:20:51.593Z,16.97
2019-04-10T14:23:22.737Z,15.00
2019-04-10T14:26:11.935Z,16.43
2019-04-10T14:28:41.640Z,19.50
2019-04-10T14:31:34.844Z,19.43
2019-04-10T14:34:04.979Z,13.40
2019-04-10T14:36:38.140Z,14.27
2019-04-10T14:39:18.427Z,12.83
2019-04-10T14:41:47.749Z,16.63
2019-04-10T14:44:21.636Z,12.07
2019-04-10T14:46:51.852Z,17.67
2019-04-10T14:49:29.295Z,17.60
2019-04-10T14:51:59.411Z,19.67
2019-04-10T14:54:32.219Z,20.37
2019-04-10T14:57:02.723Z,20.50
2019-04-10T14:59:37.137Z,16.33
2019-04-10T15:02:10.558Z,16.37
2019-04-10T15:04:41.479Z,14.27
2019-04-10T15:07:12.911Z,19.27
2019-04-10T15:09:44.964Z,18.30
2019-04-10T15:12:18.461Z,16.23
2019-04-10T15:14:47.992Z,16.03
2019-04-10T15:17:19.493Z,17.07
2019-04-10T15:19:53.671Z,21.23
2019-04-10T15:22:25.498Z,14.33
2019-04-10T15:24:55.195Z,21.83
2019-04-10T15:27:25.045Z,15.80
2019-04-10T15:29:57.414Z,18.33
2019-04-10T15:35:24.705Z,22.90
2019-04-10T15:37:59.953Z,15.90
2019-04-10T15:40:32.470Z,16.60
2019-04-10T15:43:04.953Z,16.13
2019-04-10T15:45:40.307Z,17.10
2019-04-10T15:48:22.991Z,18.57
2019-04-10T15:51:18.167Z,17.37
2019-04-10T15:53:47.290Z,18.47
2019-04-10T15:56:20.453Z,16.60
2019-04-10T15:59:08.136Z,18.47
2019-04-10T16:01:39.295Z,19.43
2019-04-10T16:04:11.605Z,16.87
2019-04-10T16:06:45.225Z,18.90
2019-04-10T16:09:21.086Z,17.23
2019-04-10T16:11:56.282Z,18.07
2019-04-10T16:14:29.024Z,19.57
2019-04-10T16:17:05.039Z,20.43
2019-04-10T16:19:39.047Z,23.43
2019-04-10T16:22:27.622Z,19.10
2019-04-10T16:24:57.619Z,17.47
2019-04-10T16:27:28.692Z,17.87
2019-04-10T16:30:03.018Z,17.57
2019-04-10T16:32:34.977Z,25.63
2019-04-10T16:37:58.159Z,18.93
2019-04-10T16:40:31.882Z,18.27
2019-04-10T16:43:04.922Z,23.10
2019-04-10T16:45:36.697Z,19.67
2019-04-10T16:48:10.659Z,17.43
2019-04-10T16:50:40.131Z,18.13
2019-04-10T16:53:11.820Z,16.67
2019-04-10T16:55:43.098Z,19.00
2019-04-10T16:58:13.654Z,18.27
2019-04-10T17:00:45.316Z,17.73
2019-04-10T17:03:15.652Z,18.60
2019-04-10T17:05:45.988Z,16.73
2019-04-10T17:08:17.807Z,19.67
2019-04-10T17:10:48.768Z,18.27
2019-04-10T17:13:19.328Z,18.17
2019-04-10T17:15:50.215Z,21.97
2019-04-10T17:18:21.146Z,16.83
2019-04-10T17:20:52.844Z,24.57
2019-04-10T17:23:22.597Z,21.07
2019-04-10T17:25:52.672Z,17.97
2019-04-10T17:28:23.291Z,21.10
2019-04-10T17:30:53.911Z,20.67
2019-04-10T17:33:25.151Z,20.50
2019-04-10T17:35:56.174Z,19.53
2019-04-10T17:38:29.435Z,19.47
2019-04-10T17:41:01.205Z,21.33
2019-04-10T17:43:32.883Z,20.07
2019-04-10T17:46:03.704Z,22.37
2019-04-10T17:48:34.775Z,20.83
2019-04-10T17:51:06.127Z,25.40
2019-04-10T17:53:35.760Z,19.70
2019-04-10T17:56:06.284Z,18.47
2019-04-10T17:58:35.929Z,22.30
2019-04-10T18:01:08.590Z,21.13
2019-04-10T18:03:46.032Z,19.47
2019-04-10T18:06:10.965Z,22.10
2019-04-10T18:08:41.063Z,20.97
2019-04-10T18:11:10.705Z,17.93
2019-04-10T18:13:40.110Z,27.37
2019-04-10T18:16:10.629Z,19.40
2019-04-10T18:18:40.239Z,19.47
2019-04-10T18:21:10.626Z,21.07
2019-04-10T18:23:41.900Z,20.27
2019-04-10T18:26:11.543Z,21.53
2019-04-10T18:28:43.475Z,23.03
2019-04-10T18:31:16.641Z,18.70
2019-04-10T18:33:47.193Z,24.00
2019-04-10T18:36:17.530Z,19.97
2019-04-10T18:38:48.009Z,22.07
2019-04-10T18:41:19.940Z,22.13
2019-04-10T18:43:51.085Z,18.17
2019-04-10T18:46:22.462Z,21.70
2019-04-10T18:48:52.187Z,20.03
2019-04-10T18:51:25.782Z,20.60
2019-04-10T18:53:55.458Z,23.20
2019-04-10T18:56:25.133Z,21.50
2019-04-10T18:59:12.462Z,20.47
2019-04-10T19:01:43.547Z,20.77
2019-04-10T19:04:18.586Z,22.07
2019-04-10T19:06:56.550Z,18.47
2019-04-10T19:09:28.739Z,19.17
2019-04-10T19:11:58.394Z,19.67
2019-04-10T19:14:28.702Z,18.67
2019-04-10T19:17:00.396Z,18.90
2019-04-10T19:19:30.854Z,19.33
2019-04-10T19:22:00.361Z,19.37
2019-04-10T19:24:30.264Z,20.43
2019-04-10T19:27:01.982Z,22.63
2019-04-10T19:29:31.895Z,19.07
2019-04-10T19:32:03.425Z,25.07
2019-04-10T19:34:34.328Z,19.97
2019-04-10T19:37:04.122Z,20.50
2019-04-10T19:39:34.210Z,20.70
2019-04-10T19:42:04.976Z,21.50
2019-04-10T19:44:35.628Z,24.03
2019-04-10T19:47:06.231Z,20.10
2019-04-10T19:49:37.005Z,22.13
2019-04-10T19:52:06.959Z,21.60
2019-04-10T19:54:36.410Z,20.80
2019-04-10T19:57:06.858Z,20.20
2019-04-10T19:59:36.623Z,21.57
2019-04-10T20:02:06.703Z,21.67
2019-04-10T20:04:36.823Z,21.30
2019-04-10T20:07:06.936Z,20.90
2019-04-10T20:09:36.773Z,22.67
2019-04-10T20:12:06.541Z,22.17
2019-04-10T20:14:36.776Z,22.23
2019-04-10T20:17:06.324Z,26.57
2019-04-10T20:19:38.340Z,26.83
2019-04-10T20:22:10.560Z,20.73
2019-04-10T20:24:40.944Z,19.93
2019-04-10T20:27:10.415Z,21.80
2019-04-10T20:29:41.374Z,27.30
2019-04-10T20:32:12.723Z,23.07
2019-04-10T20:34:43.459Z,17.80
2019-04-10T20:37:13.041Z,20.00
2019-04-10T20:39:42.451Z,18.37
2019-04-10T20:42:11.919Z,18.00
2019-04-10T20:44:41.498Z,16.47
2019-04-10T20:47:11.009Z,20.43
2019-04-10T20:49:40.591Z,17.93
2019-04-10T20:52:11.449Z,18.67
2019-04-10T20:54:41.271Z,15.13
2019-04-10T20:57:11.064Z,17.03
2019-04-10T20:59:40.535Z,17.70
2019-04-10T21:02:10.023Z,18.87
2019-04-10T21:04:40.695Z,21.03
2019-04-10T21:07:10.659Z,19.77
2019-04-10T21:09:40.235Z,19.47
2019-04-10T21:12:13.018Z,17.60
2019-04-10T21:14:41.624Z,19.10
2019-04-10T21:17:12.110Z,22.47
2019-04-10T21:19:41.619Z,19.23
2019-04-10T21:22:11.714Z,18.93
2019-04-10T21:24:41.346Z,20.63
2019-04-10T21:27:11.266Z,20.60
2019-04-10T21:29:59.204Z,22.10
2019-04-10T21:32:34.585Z,25.53
2019-04-10T21:35:07.628Z,23.63
2019-04-10T21:37:38.099Z,24.30
2019-04-10T21:40:08.173Z,22.63
2019-04-10T21:42:37.623Z,23.70
2019-04-10T21:45:07.549Z,24.53
2019-04-10T21:47:39.696Z,25.00
2019-04-10T21:50:09.437Z,23.17
2019-04-10T21:52:41.287Z,23.07
2019-04-10T21:55:11.020Z,24.97
2019-04-10T21:57:43.261Z,23.00
2019-04-10T22:00:14.111Z,25.47
2019-04-10T22:02:47.046Z,27.30
2019-04-10T22:05:16.666Z,26.23
2019-04-10T22:07:50.375Z,26.10
2019-04-10T22:10:30.377Z,26.03
2019-04-10T22:12:59.827Z,27.03
2019-04-10T22:15:31.007Z,26.30
2019-04-10T22:18:00.840Z,26.37
2019-04-10T22:20:31.826Z,25.80
2019-04-10T22:23:01.853Z,28.10
2019-04-10T22:25:31.895Z,28.40
2019-04-10T22:28:01.576Z,28.67
2019-04-10T22:30:31.093Z,32.30
2019-04-10T22:33:00.636Z,27.40
2019-04-10T22:35:31.325Z,29.27
2019-04-10T22:38:02.621Z,30.67
2019-04-10T22:40:33.346Z,28.63
2019-04-10T22:43:03.338Z,30.37
2019-04-10T22:45:34.241Z,32.77
2019-04-10T22:48:04.368Z,30.30
2019-04-10T22:50:34.782Z,32.27
2019-04-10T22:53:04.694Z,30.90
2019-04-10T22:55:34.379Z,32.43
2019-04-10T22:58:05.081Z,33.33
2019-04-10T23:00:34.589Z,33.03
2019-04-10T23:03:04.171Z,31.30
2019-04-10T23:05:34.427Z,34.73
2019-04-10T23:08:04.247Z,34.57
2019-04-10T23:10:35.145Z,32.63
2019-04-10T23:13:08.656Z,32.43
2019-04-10T23:15:41.748Z,34.93
2019-04-10T23:18:11.207Z,34.60
2019-04-10T23:20:41.754Z,32.93
2019-04-10T23:23:11.653Z,34.03
2019-04-10T23:25:41.143Z,38.53
2019-04-10T23:28:11.535Z,36.80
2019-04-10T23:30:41.342Z,35.93
2019-04-10T23:33:14.081Z,31.73
2019-04-10T23:35:43.521Z,33.27
2019-04-10T23:38:13.235Z,33.73
2019-04-10T23:40:43.236Z,34.17
2019-04-10T23:43:16.677Z,33.77
2019-04-10T23:45:46.066Z,33.67
2019-04-10T23:48:16.928Z,36.57
2019-04-10T23:50:46.432Z,30.30
2019-04-10T23:53:17.239Z,34.73
2019-04-10T23:55:50.349Z,35.20
2019-04-10T23:58:20.436Z,33.87
